Time;durP1;ratioP1;P1;durP2;ratioP2;P2;SDS_P1;SDS_P2;PMS_P1;PMS_P2;Temp;Humidity;BMP_temperature;BMP_pressure;BME280_temperature;BME280_humidity;BME280_pressure;Samples;Min_cycle;Max_cycle;Signal;HPM_P1;HPM_P2
2022/07/09 00:01:12;;;;;;;15.35;6.07;;;17.20;99.90;;;;;;5091309;27;37875;-58
2022/07/09 00:03:39;;;;;;;10.98;4.88;;;17.20;99.90;;;;;;5091499;27;37286;-58
2022/07/09 00:06:07;;;;;;;9.30;5.75;;;17.20;99.90;;;;;;5092191;27;38476;-58
2022/07/09 00:08:34;;;;;;;9.52;5.45;;;17.20;99.90;;;;;;5089307;27;37490;-58
2022/07/09 00:11:03;;;;;;;11.65;5.80;;;17.20;99.90;;;;;;5090928;27;36443;-58
2022/07/09 00:13:30;;;;;;;13.25;6.13;;;17.20;99.90;;;;;;5091522;27;37643;-58
2022/07/09 00:15:57;;;;;;;9.95;5.97;;;17.20;99.90;;;;;;5091289;27;37625;-58
2022/07/09 00:18:25;;;;;;;12.93;6.03;;;17.20;99.90;;;;;;5092337;27;36846;-59
2022/07/09 00:20:54;;;;;;;10.35;5.55;;;17.20;99.90;;;;;;5090037;27;38879;-58
2022/07/09 00:23:21;;;;;;;11.68;6.25;;;17.20;99.90;;;;;;5091805;27;39142;-58
2022/07/09 00:25:49;;;;;;;15.30;6.35;;;17.20;99.90;;;;;;5092582;27;38460;-58
2022/07/09 00:28:17;;;;;;;14.40;5.38;;;17.20;99.90;;;;;;5091589;27;37353;-58
2022/07/09 00:30:45;;;;;;;11.27;6.05;;;17.30;99.90;;;;;;5090817;27;37740;-58
2022/07/09 00:33:12;;;;;;;13.27;6.97;;;17.30;99.90;;;;;;5089215;27;37653;-58
2022/07/09 00:35:39;;;;;;;10.38;6.18;;;17.20;99.90;;;;;;5090252;27;37878;-58
2022/07/09 00:38:07;;;;;;;17.38;6.85;;;17.30;99.90;;;;;;5088946;27;37350;-58
2022/07/09 00:40:35;;;;;;;13.95;6.00;;;17.30;99.90;;;;;;5089038;27;36540;-58
2022/07/09 00:43:02;;;;;;;12.52;5.97;;;17.30;99.90;;;;;;5089742;27;38041;-58
2022/07/09 00:45:30;;;;;;;10.32;5.88;;;17.30;99.90;;;;;;5089472;27;38649;-57
2022/07/09 00:47:59;;;;;;;15.45;5.95;;;17.30;99.90;;;;;;5090808;27;37216;-57
2022/07/09 00:50:26;;;;;;;13.18;6.78;;;17.30;99.90;;;;;;5091369;27;37229;-58
2022/07/09 00:52:54;;;;;;;10.40;5.10;;;17.30;99.90;;;;;;5088516;27;39093;-58
2022/07/09 00:55:21;;;;;;;11.63;5.53;;;17.30;99.90;;;;;;5090019;27;37766;-58
2022/07/09 00:57:49;;;;;;;14.00;7.05;;;17.30;99.90;;;;;;5089587;27;37522;-58
2022/07/09 01:00:18;;;;;;;10.70;5.13;;;17.30;99.90;;;;;;5090656;27;36506;-57
2022/07/09 01:02:48;;;;;;;16.50;6.43;;;17.30;99.90;;;;;;5089037;27;37578;-59
2022/07/09 01:05:15;;;;;;;13.70;6.85;;;17.30;99.90;;;;;;5090653;27;37740;-58
2022/07/09 01:07:42;;;;;;;14.82;5.57;;;17.30;99.90;;;;;;5092421;27;36873;-58
2022/07/09 01:10:10;;;;;;;11.48;4.60;;;17.30;99.90;;;;;;5090440;27;38239;-58
2022/07/09 01:12:37;;;;;;;10.80;5.00;;;17.30;99.90;;;;;;5089549;27;36331;-58
2022/07/09 01:15:06;;;;;;;16.23;5.97;;;17.30;99.90;;;;;;5092553;27;36730;-58
2022/07/09 01:17:38;;;;;;;15.40;5.85;;;17.30;99.90;;;;;;5089151;27;37899;-58
2022/07/09 01:20:08;;;;;;;10.32;5.70;;;17.30;99.90;;;;;;5088992;27;39380;-58
2022/07/09 01:22:37;;;;;;;12.13;5.43;;;17.30;99.90;;;;;;5088690;27;37514;-58
2022/07/09 01:25:09;;;;;;;9.02;4.85;;;17.30;99.90;;;;;;5087804;27;37892;-58
2022/07/09 01:27:37;;;;;;;9.25;4.57;;;17.30;99.90;;;;;;5089549;27;37528;-58
2022/07/09 01:30:06;;;;;;;8.70;4.72;;;17.30;99.90;;;;;;5089286;27;36397;-57
2022/07/09 01:32:33;;;;;;;12.85;6.15;;;17.30;99.90;;;;;;5087691;27;38510;-58
2022/07/09 01:35:00;;;;;;;12.40;5.80;;;17.40;99.90;;;;;;5088335;27;37571;-58
2022/07/09 01:37:27;;;;;;;12.75;5.63;;;17.30;99.90;;;;;;5088814;27;39566;-57
2022/07/09 01:39:56;;;;;;;17.45;6.07;;;17.30;99.90;;;;;;5089508;27;36433;-57
2022/07/09 01:42:23;;;;;;;11.27;5.35;;;17.30;99.90;;;;;;5087845;27;38602;-58
2022/07/09 01:44:51;;;;;;;12.63;5.35;;;17.30;99.90;;;;;;5090618;27;36326;-58
2022/07/09 01:47:18;;;;;;;12.20;5.32;;;17.30;99.90;;;;;;5089697;27;36819;-58
2022/07/09 01:49:46;;;;;;;12.88;5.35;;;17.30;99.90;;;;;;5089547;27;36623;-58
2022/07/09 01:52:13;;;;;;;15.15;5.85;;;17.30;99.90;;;;;;5088121;27;39426;-58
2022/07/09 01:54:40;;;;;;;12.07;5.43;;;17.30;99.90;;;;;;5089397;27;37442;-58
2022/07/09 01:57:09;;;;;;;19.27;6.28;;;17.30;99.90;;;;;;5087942;27;37769;-58
2022/07/09 01:59:36;;;;;;;14.10;5.93;;;17.30;99.90;;;;;;5089406;27;36808;-58
2022/07/09 02:02:05;;;;;;;12.10;5.53;;;17.30;99.90;;;;;;5088860;27;37365;-58
2022/07/09 02:04:32;;;;;;;14.48;6.00;;;17.30;99.90;;;;;;5089188;27;37295;-59
2022/07/09 02:06:59;;;;;;;12.65;5.82;;;17.30;99.90;;;;;;5089480;27;36690;-58
2022/07/09 02:09:27;;;;;;;13.30;6.60;;;17.30;99.90;;;;;;5089775;27;35201;-58
2022/07/09 02:11:54;;;;;;;11.10;5.10;;;17.20;99.90;;;;;;5088937;27;38885;-58
2022/07/09 02:14:23;;;;;;;14.43;5.65;;;17.20;99.90;;;;;;5089081;27;37822;-58
2022/07/09 02:16:51;;;;;;;8.90;5.00;;;17.20;99.90;;;;;;5088117;27;37657;-59
2022/07/09 02:19:19;;;;;;;10.57;5.03;;;17.20;99.90;;;;;;5090102;27;36543;-58
2022/07/09 02:21:46;;;;;;;11.93;4.90;;;17.20;99.90;;;;;;5087164;27;36251;-59
2022/07/09 02:24:13;;;;;;;13.02;4.65;;;17.20;99.90;;;;;;5091200;27;38340;-59
2022/07/09 02:26:41;;;;;;;10.25;4.70;;;17.20;99.90;;;;;;5089554;27;37621;-58
2022/07/09 02:29:08;;;;;;;15.07;5.47;;;17.20;99.90;;;;;;5089965;27;36403;-58
2022/07/09 02:31:36;;;;;;;15.07;5.15;;;17.20;99.90;;;;;;5089030;27;37731;-59
2022/07/09 02:34:04;;;;;;;11.57;4.30;;;17.20;99.90;;;;;;5088661;27;38304;-58
2022/07/09 02:36:31;;;;;;;12.43;4.90;;;17.20;99.90;;;;;;5089018;27;37898;-58
2022/07/09 02:38:58;;;;;;;8.02;4.07;;;17.20;99.90;;;;;;5088445;27;36576;-58
2022/07/09 02:41:26;;;;;;;10.85;4.25;;;17.20;99.90;;;;;;5087954;27;37627;-58
2022/07/09 02:43:53;;;;;;;8.43;3.67;;;17.30;99.90;;;;;;5088270;27;38839;-58
2022/07/09 02:46:20;;;;;;;8.80;3.92;;;17.20;99.90;;;;;;5089192;27;38116;-59
2022/07/09 02:48:49;;;;;;;11.18;3.65;;;17.20;99.90;;;;;;5089531;27;35372;-59
2022/07/09 02:51:16;;;;;;;12.30;3.85;;;17.20;99.90;;;;;;5087665;27;36388;-58
2022/07/09 02:53:43;;;;;;;11.10;3.63;;;17.20;99.90;;;;;;5086482;27;37880;-58
2022/07/09 02:56:11;;;;;;;9.95;3.65;;;17.20;99.90;;;;;;5089315;27;38229;-58
2022/07/09 02:58:38;;;;;;;11.98;3.97;;;17.20;99.90;;;;;;5086700;27;35296;-59
2022/07/09 03:01:06;;;;;;;9.90;3.63;;;17.20;99.90;;;;;;5087956;27;37712;-58
2022/07/09 03:03:35;;;;;;;11.13;4.15;;;17.20;99.90;;;;;;5086744;27;37633;-58
2022/07/09 03:06:05;;;;;;;9.02;3.55;;;17.20;99.90;;;;;;5088815;27;37236;-58
2022/07/09 03:08:33;;;;;;;10.00;3.75;;;17.10;99.90;;;;;;5092131;27;35292;-58
2022/07/09 03:11:00;;;;;;;8.57;3.47;;;17.10;99.90;;;;;;5090703;27;38383;-58
2022/07/09 03:13:27;;;;;;;10.75;3.70;;;17.10;99.90;;;;;;5091380;27;38341;-59
2022/07/09 03:15:55;;;;;;;5.53;3.13;;;17.10;99.90;;;;;;5092696;27;40437;-58
2022/07/09 03:18:22;;;;;;;11.02;3.20;;;17.00;99.90;;;;;;5092360;27;36016;-58
2022/07/09 03:20:50;;;;;;;8.10;3.90;;;17.00;99.90;;;;;;5091841;27;37334;-58
2022/07/09 03:23:19;;;;;;;11.75;3.78;;;17.00;99.90;;;;;;5091448;27;37710;-58
2022/07/09 03:25:46;;;;;;;10.90;3.95;;;17.00;99.90;;;;;;5091367;27;38391;-58
2022/07/09 03:28:14;;;;;;;7.82;3.80;;;17.00;99.90;;;;;;5091122;27;36665;-58
2022/07/09 03:30:41;;;;;;;10.05;4.10;;;17.00;99.90;;;;;;5092754;27;37556;-59
2022/07/09 03:33:08;;;;;;;11.18;4.65;;;17.00;99.90;;;;;;5090549;27;36481;-58
2022/07/09 03:35:36;;;;;;;7.53;3.63;;;17.00;99.90;;;;;;5091437;27;37529;-58
2022/07/09 03:38:05;;;;;;;8.00;4.03;;;17.00;99.90;;;;;;5089532;27;37807;-58
2022/07/09 03:40:34;;;;;;;12.15;4.28;;;17.00;99.90;;;;;;5090866;27;38893;-58
2022/07/09 03:43:02;;;;;;;10.02;4.32;;;17.00;99.90;;;;;;5091248;27;37385;-58
2022/07/09 03:45:29;;;;;;;8.68;3.88;;;17.00;99.90;;;;;;5093257;27;38625;-56
2022/07/09 03:47:57;;;;;;;11.73;4.38;;;17.00;99.90;;;;;;5089693;27;36911;-58
2022/07/09 03:50:24;;;;;;;9.73;4.53;;;17.00;99.90;;;;;;5091004;27;37708;-58
2022/07/09 03:52:51;;;;;;;13.40;3.97;;;17.00;99.90;;;;;;5090065;27;38687;-58
2022/07/09 03:55:19;;;;;;;8.85;4.20;;;17.00;99.90;;;;;;5090506;27;38572;-58
2022/07/09 03:57:48;;;;;;;9.70;4.38;;;17.00;99.90;;;;;;5092172;27;38051;-58
2022/07/09 04:00:16;;;;;;;24.45;4.68;;;17.00;99.90;;;;;;5091943;27;36203;-58
2022/07/09 04:02:43;;;;;;;14.50;4.55;;;17.00;99.90;;;;;;5091143;27;37593;-58
2022/07/09 04:05:11;;;;;;;13.77;4.63;;;17.00;99.90;;;;;;5090943;27;37589;-58
2022/07/09 04:07:39;;;;;;;9.25;4.03;;;17.00;99.90;;;;;;5091793;27;36296;-58
2022/07/09 04:10:08;;;;;;;7.82;4.03;;;17.00;99.90;;;;;;5090277;27;39288;-58
2022/07/09 04:12:35;;;;;;;12.40;5.07;;;17.00;99.90;;;;;;5088052;27;37735;-58
2022/07/09 04:15:05;;;;;;;8.77;4.15;;;17.00;99.90;;;;;;5091343;27;36895;-58
2022/07/09 04:17:34;;;;;;;11.23;4.53;;;17.00;99.90;;;;;;5093078;27;36488;-59
2022/07/09 04:20:01;;;;;;;9.13;4.82;;;17.00;99.90;;;;;;5090540;27;38036;-58
2022/07/09 04:22:28;;;;;;;10.40;4.68;;;17.00;99.90;;;;;;5092331;27;37315;-58
2022/07/09 04:24:55;;;;;;;10.02;4.13;;;17.00;99.90;;;;;;5090203;27;37074;-58
2022/07/09 04:27:23;;;;;;;9.65;4.13;;;17.00;99.90;;;;;;5091081;27;35045;-58
2022/07/09 04:29:50;;;;;;;12.05;4.25;;;17.00;99.90;;;;;;5091666;27;39272;-58
2022/07/09 04:32:19;;;;;;;11.32;4.10;;;17.00;99.90;;;;;;5088051;27;38804;-58
2022/07/09 04:34:46;;;;;;;14.20;4.50;;;17.00;99.90;;;;;;5091324;27;37850;-57
2022/07/09 04:37:13;;;;;;;7.80;3.97;;;17.10;99.90;;;;;;5091107;27;36318;-58
2022/07/09 04:39:40;;;;;;;8.60;3.67;;;17.10;99.90;;;;;;5089829;27;38214;-57
2022/07/09 04:42:09;;;;;;;8.80;3.88;;;17.10;99.90;;;;;;5091837;27;36515;-58
2022/07/09 04:44:36;;;;;;;12.48;4.32;;;17.10;99.90;;;;;;5091755;27;36260;-58
2022/07/09 04:47:04;;;;;;;8.63;4.45;;;17.10;99.90;;;;;;5091240;27;36975;-58
2022/07/09 04:49:33;;;;;;;13.65;4.85;;;17.10;99.90;;;;;;5090810;27;37715;-59
2022/07/09 04:52:00;;;;;;;10.30;4.30;;;17.10;99.90;;;;;;5091103;27;38898;-58
2022/07/09 04:54:28;;;;;;;10.00;4.10;;;17.20;99.90;;;;;;5089384;27;38529;-57
2022/07/09 04:56:55;;;;;;;7.47;3.25;;;17.20;99.90;;;;;;5090393;27;37390;-57
2022/07/09 04:59:22;;;;;;;10.40;4.18;;;17.20;99.90;;;;;;5092723;27;37369;-58
2022/07/09 05:01:50;;;;;;;9.25;4.45;;;17.20;99.90;;;;;;5090328;27;36621;-58
2022/07/09 05:04:18;;;;;;;10.07;4.45;;;17.30;99.90;;;;;;5090054;27;37578;-58
2022/07/09 05:06:46;;;;;;;12.10;4.50;;;17.30;99.90;;;;;;5090056;27;36427;-58
2022/07/09 05:09:14;;;;;;;9.98;3.92;;;17.30;99.90;;;;;;5092119;27;37482;-58
2022/07/09 05:11:41;;;;;;;9.02;3.90;;;17.30;99.90;;;;;;5092642;27;38281;-58
2022/07/09 05:14:08;;;;;;;11.40;4.03;;;17.30;99.90;;;;;;5088717;27;37648;-58
2022/07/09 05:16:35;;;;;;;9.07;4.30;;;17.30;99.90;;;;;;5091787;27;37608;-58
2022/07/09 05:19:03;;;;;;;7.80;4.18;;;17.40;99.90;;;;;;5092829;27;36385;-58
2022/07/09 05:21:30;;;;;;;10.15;4.50;;;17.40;99.90;;;;;;5092388;27;37791;-57
2022/07/09 05:24:01;;;;;;;12.05;4.50;;;17.40;99.90;;;;;;5090633;27;37558;-58
2022/07/09 05:26:29;;;;;;;8.23;4.25;;;17.40;99.90;;;;;;5091073;27;36240;-57
2022/07/09 05:28:57;;;;;;;7.32;3.60;;;17.40;99.90;;;;;;5092692;27;38468;-58
2022/07/09 05:31:24;;;;;;;8.65;3.97;;;17.40;99.90;;;;;;5092175;27;37774;-57
2022/07/09 05:33:52;;;;;;;9.93;4.30;;;17.50;99.90;;;;;;5087710;27;38684;-58
2022/07/09 05:36:19;;;;;;;12.13;4.60;;;17.50;99.90;;;;;;5092059;27;35314;-58
2022/07/09 05:38:47;;;;;;;13.93;5.10;;;17.50;99.90;;;;;;5091295;27;38637;-57
2022/07/09 05:41:15;;;;;;;10.05;4.50;;;17.50;99.90;;;;;;5092496;27;37832;-57
2022/07/09 05:43:43;;;;;;;10.48;4.43;;;17.50;99.90;;;;;;5090118;27;38012;-58
2022/07/09 05:46:10;;;;;;;14.15;3.85;;;17.50;99.90;;;;;;5093245;27;36534;-57
2022/07/09 05:48:37;;;;;;;7.45;4.15;;;17.60;99.90;;;;;;5091170;27;37625;-57
2022/07/09 05:51:05;;;;;;;11.55;3.58;;;17.60;99.90;;;;;;5091215;27;38207;-57
2022/07/09 05:53:32;;;;;;;11.13;4.32;;;17.60;99.90;;;;;;5088972;27;36130;-57
2022/07/09 05:56:00;;;;;;;11.57;3.75;;;17.60;99.90;;;;;;5089695;27;37921;-58
2022/07/09 05:58:28;;;;;;;8.98;3.70;;;17.60;99.90;;;;;;5091476;27;38190;-58
2022/07/09 06:00:56;;;;;;;8.73;3.75;;;17.60;99.90;;;;;;5090501;27;37927;-58
2022/07/09 06:03:23;;;;;;;13.15;3.65;;;17.70;99.90;;;;;;5089773;27;36180;-57
2022/07/09 06:05:51;;;;;;;9.40;3.75;;;17.60;99.90;;;;;;5089066;27;38123;-57
2022/07/09 06:08:18;;;;;;;8.13;3.08;;;17.70;99.90;;;;;;5090509;27;37313;-57
2022/07/09 06:10:45;;;;;;;8.32;3.65;;;17.70;99.90;;;;;;5091069;27;37739;-58
2022/07/09 06:13:13;;;;;;;8.65;3.78;;;17.70;99.90;;;;;;5089523;27;37436;-57
2022/07/09 06:15:41;;;;;;;9.45;3.03;;;17.70;99.90;;;;;;5091747;27;36291;-57
2022/07/09 06:18:09;;;;;;;8.55;2.90;;;17.70;99.90;;;;;;5091347;27;36461;-58
2022/07/09 06:20:36;;;;;;;7.78;3.60;;;17.70;99.90;;;;;;5091655;27;37140;-57
2022/07/09 06:23:04;;;;;;;9.55;3.45;;;17.80;99.90;;;;;;5088764;27;39324;-57
2022/07/09 06:25:31;;;;;;;7.95;3.20;;;17.80;99.90;;;;;;5090038;27;37468;-57
2022/07/09 06:27:59;;;;;;;9.30;2.70;;;17.80;99.90;;;;;;5090927;27;37067;-57
2022/07/09 06:30:26;;;;;;;7.68;2.80;;;17.80;99.90;;;;;;5090846;27;38993;-58
2022/07/09 06:32:55;;;;;;;8.27;2.67;;;17.90;99.90;;;;;;5089896;27;37669;-57
2022/07/09 06:35:22;;;;;;;11.13;3.08;;;17.90;99.90;;;;;;5091283;27;37014;-57
2022/07/09 06:37:49;;;;;;;7.10;3.10;;;17.90;99.90;;;;;;5091627;27;38141;-58
2022/07/09 06:40:17;;;;;;;6.35;2.60;;;17.90;99.90;;;;;;5091614;27;38238;-57
2022/07/09 06:42:44;;;;;;;7.72;2.30;;;18.00;99.90;;;;;;5093926;27;36090;-57
2022/07/09 06:45:12;;;;;;;7.35;2.75;;;18.00;99.90;;;;;;5096073;27;36693;-57
2022/07/09 06:47:39;;;;;;;7.85;2.40;;;18.00;99.90;;;;;;5092590;27;38361;-57
2022/07/09 06:50:08;;;;;;;7.95;2.70;;;18.00;99.90;;;;;;5093635;27;37373;-57
2022/07/09 06:52:35;;;;;;;5.93;2.38;;;18.00;99.90;;;;;;5092562;27;37670;-58
2022/07/09 06:55:03;;;;;;;8.30;2.70;;;18.00;99.90;;;;;;5094435;27;37645;-57
2022/07/09 06:57:31;;;;;;;8.48;3.03;;;18.00;99.90;;;;;;5093302;27;37537;-58
2022/07/09 06:59:58;;;;;;;8.00;2.65;;;18.00;99.90;;;;;;5091885;27;36433;-58
2022/07/09 07:02:26;;;;;;;8.38;2.72;;;18.10;99.90;;;;;;5093109;27;38153;-57
2022/07/09 07:04:53;;;;;;;5.50;2.55;;;18.10;99.90;;;;;;5092559;27;36882;-58
2022/07/09 07:07:22;;;;;;;8.82;2.45;;;18.10;99.90;;;;;;5091787;27;38507;-57
2022/07/09 07:09:50;;;;;;;5.18;2.28;;;18.10;99.90;;;;;;5091388;27;38729;-57
2022/07/09 07:12:17;;;;;;;15.23;3.60;;;18.10;99.90;;;;;;5091662;27;40646;-58
2022/07/09 07:14:44;;;;;;;8.25;2.92;;;18.20;99.90;;;;;;5089171;27;36693;-58
2022/07/09 07:17:12;;;;;;;8.63;2.83;;;18.20;99.90;;;;;;5091387;27;37559;-57
2022/07/09 07:19:40;;;;;;;8.05;2.45;;;18.20;99.90;;;;;;5090315;27;39235;-57
2022/07/09 07:22:07;;;;;;;7.57;1.88;;;18.30;99.90;;;;;;5090148;27;37771;-57
2022/07/09 07:24:36;;;;;;;9.75;3.03;;;18.40;99.90;;;;;;5088224;27;37080;-57
2022/07/09 07:27:03;;;;;;;5.30;2.05;;;18.40;99.90;;;;;;5090189;27;38181;-58
2022/07/09 07:29:31;;;;;;;6.60;1.88;;;18.40;99.90;;;;;;5088471;27;36762;-58
2022/07/09 07:31:59;;;;;;;10.55;3.10;;;18.40;99.90;;;;;;5089260;27;39840;-59
2022/07/09 07:34:26;;;;;;;13.30;2.83;;;18.50;99.90;;;;;;5089283;27;37870;-57
2022/07/09 07:36:54;;;;;;;9.68;2.13;;;18.50;99.90;;;;;;5090248;27;38692;-58
2022/07/09 07:39:24;;;;;;;6.13;1.98;;;18.50;99.90;;;;;;5092801;27;35393;-58
2022/07/09 07:41:53;;;;;;;10.85;2.50;;;18.60;99.90;;;;;;5091900;27;38303;-58
2022/07/09 07:44:22;;;;;;;5.35;1.63;;;18.70;99.90;;;;;;5092065;27;36425;-58
2022/07/09 07:46:50;;;;;;;9.10;2.08;;;18.80;99.90;;;;;;5091830;27;38224;-58
2022/07/09 07:49:17;;;;;;;6.22;1.70;;;18.90;99.90;;;;;;5091506;27;38307;-58
2022/07/09 07:51:45;;;;;;;9.85;2.30;;;18.90;99.90;;;;;;5092009;27;38176;-58
2022/07/09 07:54:12;;;;;;;9.52;2.47;;;18.80;99.90;;;;;;5089284;27;35120;-58
2022/07/09 07:56:41;;;;;;;9.85;2.20;;;18.80;99.90;;;;;;5090281;27;38411;-57
2022/07/09 07:59:09;;;;;;;6.57;2.33;;;18.90;99.90;;;;;;5090962;27;36497;-57
2022/07/09 08:01:37;;;;;;;11.30;2.65;;;19.00;99.90;;;;;;5092569;27;39235;-58
2022/07/09 08:04:04;;;;;;;6.43;1.92;;;19.00;99.90;;;;;;5090030;27;37457;-58
2022/07/09 08:06:32;;;;;;;8.00;1.73;;;19.00;99.90;;;;;;5086405;27;36347;-58
2022/07/09 08:08:59;;;;;;;7.80;2.13;;;19.10;99.90;;;;;;5090794;27;37518;-58
2022/07/09 08:11:26;;;;;;;7.30;1.80;;;19.30;99.90;;;;;;5091140;27;38466;-58
2022/07/09 08:13:54;;;;;;;9.15;1.88;;;19.40;99.90;;;;;;5089889;27;37109;-58
2022/07/09 08:29:22;;;;;;;13.10;2.78;;;19.60;99.90;;;;;;6186457;22;20020;-53
2022/07/09 08:31:50;;;;;;;8.10;2.40;;;19.50;99.90;;;;;;5470239;22;35352;-59
2022/07/09 08:44:47;;;;;;;7.95;1.85;;;19.70;99.90;;;;;;5841572;22;19934;-59
2022/07/09 08:49:55;;;;;;;25.50;3.00;;;20.00;99.90;;;;;;5244309;22;19923;-53
2022/07/09 08:52:23;;;;;;;5.82;1.60;;;20.00;99.90;;;;;;5123084;27;37170;-55
2022/07/09 08:58:01;;;;;;;7.78;1.80;;;20.10;99.90;;;;;;5071203;27;36668;-54
2022/07/09 09:00:30;;;;;;;7.85;1.85;;;20.00;99.90;;;;;;5070200;27;38520;-55
2022/07/09 09:02:57;;;;;;;12.43;1.60;;;20.00;99.90;;;;;;5062265;27;38162;-54
2022/07/09 09:05:25;;;;;;;7.05;2.05;;;20.20;99.90;;;;;;5067726;27;36492;-54
2022/07/09 09:07:52;;;;;;;7.57;1.98;;;20.40;99.90;;;;;;5070149;27;36952;-53
2022/07/09 09:10:23;;;;;;;10.07;2.22;;;20.40;99.90;;;;;;5070917;27;38313;-55
2022/07/09 09:12:56;;;;;;;6.40;1.67;;;20.40;99.90;;;;;;5066653;27;37905;-54
2022/07/09 09:15:23;;;;;;;4.67;1.60;;;20.50;99.90;;;;;;5070266;27;37367;-53
2022/07/09 09:17:52;;;;;;;5.97;1.50;;;20.50;99.90;;;;;;5069896;27;37356;-54
2022/07/09 09:20:20;;;;;;;7.38;2.00;;;20.50;99.90;;;;;;5070822;27;37662;-53
2022/07/09 09:22:48;;;;;;;9.70;1.90;;;20.60;99.90;;;;;;5070041;27;37244;-54
2022/07/09 09:25:19;;;;;;;10.07;1.92;;;20.60;99.90;;;;;;5072246;27;36509;-54
2022/07/09 09:27:53;;;;;;;7.05;1.42;;;20.60;99.90;;;;;;5069413;27;39148;-54
2022/07/09 09:30:21;;;;;;;8.98;2.10;;;20.50;99.90;;;;;;5096114;27;36399;-52
2022/07/09 09:33:00;;;;;;;6.55;1.80;;;20.40;99.90;;;;;;5094202;27;37413;-54
2022/07/09 09:35:28;;;;;;;14.43;2.90;;;20.30;99.90;;;;;;5096433;27;36684;-53
2022/07/09 09:37:56;;;;;;;10.25;1.83;;;20.30;99.90;;;;;;5094936;27;36327;-54
2022/07/09 09:40:24;;;;;;;7.05;2.00;;;20.40;99.90;;;;;;5095342;27;37469;-54
2022/07/09 09:42:52;;;;;;;6.25;1.33;;;20.40;99.90;;;;;;5093850;27;37156;-55
2022/07/09 09:45:21;;;;;;;8.70;1.75;;;20.50;99.90;;;;;;5095531;27;20494;-53
2022/07/09 09:47:49;;;;;;;8.00;1.85;;;20.50;99.90;;;;;;5093766;27;37451;-55
2022/07/09 09:50:21;;;;;;;8.77;1.63;;;20.40;99.90;;;;;;5095986;27;38503;-54
2022/07/09 09:52:50;;;;;;;7.07;1.48;;;20.30;99.90;;;;;;5092912;27;37594;-54
2022/07/09 09:55:20;;;;;;;6.82;1.45;;;20.30;99.90;;;;;;5087269;27;37783;-54
2022/07/09 09:57:48;;;;;;;13.75;2.30;;;20.30;99.90;;;;;;5074452;28;35994;-55
2022/07/09 10:00:17;;;;;;;8.18;1.75;;;20.30;99.90;;;;;;5074777;28;38092;-54
2022/07/09 10:02:46;;;;;;;5.63;1.40;;;20.30;99.90;;;;;;5072707;28;37130;-55
2022/07/09 10:05:13;;;;;;;6.18;1.95;;;20.30;99.90;;;;;;5074395;28;37986;-54
2022/07/09 10:07:44;;;;;;;7.47;1.80;;;20.30;99.90;;;;;;5074835;28;36276;-54
2022/07/09 10:10:19;;;;;;;7.05;1.50;;;20.30;99.90;;;;;;5074670;28;37692;-55
2022/07/09 10:12:46;;;;;;;11.18;2.28;;;20.40;99.90;;;;;;5074108;28;39538;-54
2022/07/09 10:15:26;;;;;;;7.95;2.10;;;20.40;99.90;;;;;;5073645;27;37387;-56
2022/07/09 10:17:53;;;;;;;8.90;1.52;;;20.30;99.90;;;;;;5074581;28;37406;-55
2022/07/09 10:20:33;;;;;;;7.90;1.65;;;20.10;99.90;;;;;;5074779;28;36432;-53
2022/07/09 10:23:03;;;;;;;12.02;2.33;;;19.90;99.90;;;;;;5072936;28;38213;-54
2022/07/09 10:25:32;;;;;;;7.15;1.85;;;19.50;99.90;;;;;;5074562;28;36430;-55
2022/07/09 10:28:00;;;;;;;10.68;2.33;;;19.30;99.90;;;;;;5074778;28;37288;-53
2022/07/09 10:30:29;;;;;;;11.63;2.47;;;19.20;99.90;;;;;;5075518;28;36646;-55
2022/07/09 10:33:07;;;;;;;5.75;1.90;;;19.10;99.90;;;;;;5074380;28;38533;-54
2022/07/09 10:35:42;;;;;;;11.65;2.28;;;19.00;99.90;;;;;;5074378;28;36299;-54
2022/07/09 10:38:11;;;;;;;10.05;2.38;;;19.10;99.90;;;;;;5075542;28;37753;-54
2022/07/09 10:40:40;;;;;;;19.00;2.60;;;19.00;99.90;;;;;;5075463;28;38752;-55
2022/07/09 10:43:08;;;;;;;9.52;1.92;;;18.90;99.90;;;;;;5075933;28;37567;-55
2022/07/09 10:45:40;;;;;;;10.65;2.15;;;18.90;99.90;;;;;;5074793;28;36332;-54
2022/07/09 10:48:09;;;;;;;9.70;1.50;;;19.00;99.90;;;;;;5075762;28;37402;-53
2022/07/09 10:50:41;;;;;;;17.48;2.50;;;19.10;99.90;;;;;;5074301;28;35953;-51
2022/07/09 10:53:11;;;;;;;8.40;1.80;;;19.20;99.90;;;;;;5083397;28;36200;-55
2022/07/09 10:55:42;;;;;;;9.43;1.67;;;19.30;99.90;;;;;;5073887;28;37791;-53
2022/07/09 10:58:18;;;;;;;23.15;3.38;;;19.30;99.90;;;;;;5077211;28;37872;-52
2022/07/09 11:00:45;;;;;;;6.97;1.67;;;19.40;99.90;;;;;;5073386;28;40679;-51
2022/07/09 11:03:13;;;;;;;15.15;2.47;;;19.40;99.90;;;;;;5077378;28;37295;-53
2022/07/09 11:05:45;;;;;;;10.70;1.73;;;19.40;99.90;;;;;;5077419;28;35479;-53
2022/07/09 11:08:14;;;;;;;10.32;1.30;;;19.40;99.90;;;;;;5076267;28;37463;-51
2022/07/09 11:10:42;;;;;;;10.18;1.58;;;19.40;99.90;;;;;;5081234;28;39721;-51
2022/07/09 11:13:10;;;;;;;8.68;1.88;;;19.40;99.60;;;;;;5081483;28;37491;-51
2022/07/09 11:15:38;;;;;;;11.88;1.73;;;19.50;99.20;;;;;;5079902;28;35833;-59
2022/07/09 11:18:08;;;;;;;13.80;1.50;;;19.50;99.30;;;;;;5080268;28;38937;-58
2022/07/09 11:20:39;;;;;;;7.28;1.40;;;19.60;98.80;;;;;;5082276;28;38002;-58
2022/07/09 11:23:07;;;;;;;6.70;1.20;;;19.60;98.50;;;;;;5088601;28;38576;-58
2022/07/09 11:25:36;;;;;;;6.15;1.50;;;19.60;98.50;;;;;;5082236;28;36426;-58
2022/07/09 11:28:04;;;;;;;6.15;1.70;;;19.60;97.90;;;;;;5085031;28;37821;-57
2022/07/09 11:30:32;;;;;;;6.60;1.48;;;19.60;97.70;;;;;;5086254;28;38182;-58
2022/07/09 11:32:59;;;;;;;7.55;2.10;;;19.70;97.90;;;;;;5082540;27;36876;-58
2022/07/09 11:35:31;;;;;;;6.35;1.08;;;19.80;97.80;;;;;;5079107;28;37470;-57
2022/07/09 11:38:00;;;;;;;6.15;1.10;;;19.90;97.10;;;;;;5080661;27;39971;-57
2022/07/09 11:40:28;;;;;;;3.20;0.98;;;19.90;96.80;;;;;;5082486;27;37789;-57
2022/07/09 11:42:57;;;;;;;7.30;1.33;;;19.90;96.70;;;;;;5080243;27;37884;-58
2022/07/09 11:45:26;;;;;;;7.43;1.30;;;19.90;96.40;;;;;;5080958;27;35505;-58
2022/07/09 11:48:04;;;;;;;3.97;0.98;;;20.00;97.10;;;;;;5081159;28;38128;-61
2022/07/09 11:50:32;;;;;;;7.05;1.63;;;20.00;96.00;;;;;;5081439;28;37805;-59
2022/07/09 11:53:00;;;;;;;9.98;1.58;;;20.10;96.60;;;;;;5083426;27;38237;-59
2022/07/09 11:55:33;;;;;;;8.18;1.48;;;20.10;96.30;;;;;;5083539;28;35968;-59
2022/07/09 11:58:08;;;;;;;6.38;1.52;;;20.10;96.00;;;;;;5081959;28;37518;-59
2022/07/09 12:00:40;;;;;;;5.70;1.05;;;20.10;96.00;;;;;;5080270;28;38640;-58
2022/07/09 12:03:08;;;;;;;10.15;1.23;;;20.10;96.00;;;;;;5083511;28;38067;-58
2022/07/09 12:05:38;;;;;;;7.00;1.10;;;20.10;95.90;;;;;;5081255;28;37146;-58
2022/07/09 12:08:08;;;;;;;5.97;1.65;;;20.20;96.40;;;;;;5081974;28;37571;-58
2022/07/09 12:10:36;;;;;;;5.88;1.02;;;20.20;96.80;;;;;;5082896;28;37638;-58
2022/07/09 12:13:08;;;;;;;5.07;1.10;;;20.20;95.70;;;;;;5084050;28;38279;-57
2022/07/09 12:15:36;;;;;;;8.60;1.30;;;20.20;95.70;;;;;;5082642;28;36947;-58
2022/07/09 12:18:04;;;;;;;4.03;1.13;;;20.10;95.40;;;;;;5082065;28;37527;-57
2022/07/09 12:20:34;;;;;;;6.35;1.25;;;20.00;94.80;;;;;;5080840;28;38337;-58
2022/07/09 12:23:01;;;;;;;8.52;1.30;;;19.90;94.90;;;;;;5082856;27;37921;-57
2022/07/09 12:25:29;;;;;;;6.15;1.00;;;19.90;95.60;;;;;;5082080;28;37921;-58
2022/07/09 12:27:56;;;;;;;7.85;1.10;;;20.00;95.80;;;;;;5082506;28;37010;-57
2022/07/09 12:30:29;;;;;;;7.45;1.45;;;20.00;95.60;;;;;;5081290;28;37617;-58
2022/07/09 12:32:58;;;;;;;6.68;1.30;;;20.00;95.50;;;;;;5081837;28;38453;-58
2022/07/09 12:35:26;;;;;;;8.05;1.38;;;19.90;95.20;;;;;;5083379;28;37502;-57
2022/07/09 12:37:55;;;;;;;12.90;1.92;;;19.90;95.10;;;;;;5082395;28;38419;-57
2022/07/09 12:40:23;;;;;;;13.38;1.27;;;19.90;95.60;;;;;;5080541;28;38243;-58
2022/07/09 12:42:50;;;;;;;9.68;1.33;;;19.80;95.20;;;;;;5081606;28;36560;-58
2022/07/09 12:45:18;;;;;;;6.68;1.23;;;19.70;95.20;;;;;;5082214;28;37454;-58
2022/07/09 12:47:47;;;;;;;8.80;1.48;;;19.70;95.40;;;;;;5081618;28;38268;-58
2022/07/09 12:50:14;;;;;;;4.82;1.02;;;19.70;95.40;;;;;;5079942;28;37760;-58
2022/07/09 12:52:41;;;;;;;7.15;1.50;;;19.70;95.70;;;;;;5080602;28;37297;-59
2022/07/09 12:55:09;;;;;;;5.68;1.05;;;19.70;95.90;;;;;;5079630;28;36952;-58
2022/07/09 12:57:37;;;;;;;10.48;1.60;;;19.80;96.00;;;;;;5080584;28;37768;-58
2022/07/09 13:00:06;;;;;;;3.80;0.75;;;19.80;96.00;;;;;;5080029;28;37903;-59
2022/07/09 13:02:33;;;;;;;6.40;1.17;;;19.80;96.00;;;;;;5079915;28;37519;-59
2022/07/09 13:05:02;;;;;;;7.07;1.25;;;19.90;96.00;;;;;;5079297;27;36432;-59
2022/07/09 13:07:29;;;;;;;9.60;1.63;;;20.00;96.50;;;;;;5078182;28;37660;-58
2022/07/09 13:09:56;;;;;;;7.97;1.30;;;20.10;96.30;;;;;;5079858;28;38580;-58
2022/07/09 13:12:24;;;;;;;11.45;1.63;;;20.20;95.50;;;;;;5079320;28;38715;-58
2022/07/09 13:14:51;;;;;;;9.45;1.40;;;20.20;95.30;;;;;;5078449;28;33721;-59
2022/07/09 13:17:19;;;;;;;12.75;1.75;;;20.20;95.00;;;;;;5077010;28;36792;-59